GEC8346 EDDF-LTFM
Flight info
| Callsign | GEC8346 |
|---|---|
| Flight time | 2h 17m |
| Altitude | 31000 |
| Route | CINDY8S/18 CINDY Z74 HAREM DCT ASLEP DCT TAKUT DCT DINKU L603 BESNI/N0485F330 L605 MIQ DCT ALUTU/N0482F350 DCT BIBAG L605 ESEGA DCT VELOM DCT GOTAR DCT BABIT DCT ESIRI DCT ETIDA T390 RILEX |
| Aircraft | B77L/H-SDE1E2E3FGHIJ2J3J4J5M1RWXY/LB1D1 |
Departure
| Time | 2026-05-07 12:27 |
|---|---|
| Airport | Frankfurt Main Airport (EDDF) |
Arrival
| Time | 2026-05-07 14:44 |
|---|---|
| Airport | İstanbul Airport (LTFM) |
| Time | Latitude | Longitude | Altitude | Speed | Heading |
|---|---|---|---|---|---|
| 2026-05-07 11:42 | 50.04058 | 8.54778 | 359 ft | 0 kts | 74° |
| 2026-05-07 12:18 | 50.04045 | 8.54705 | 360 ft | 13 kts | 91° |
| 2026-05-07 12:18 | 50.04055 | 8.54659 | 363 ft | 0 kts | 156° |
| 2026-05-07 12:20 | 50.04045 | 8.54664 | 361 ft | 5 kts | 161° |
| 2026-05-07 12:20 | 50.03980 | 8.54685 | 360 ft | 13 kts | 182° |
| 2026-05-07 12:20 | 50.03916 | 8.54586 | 362 ft | 14 kts | 245° |
| 2026-05-07 12:20 | 50.03881 | 8.54443 | 358 ft | 15 kts | 248° |
| 2026-05-07 12:21 | 50.03827 | 8.54294 | 362 ft | 16 kts | 238° |
| 2026-05-07 12:21 | 50.03778 | 8.54136 | 361 ft | 16 kts | 249° |
| 2026-05-07 12:21 | 50.03739 | 8.53972 | 358 ft | 16 kts | 250° |
| 2026-05-07 12:21 | 50.03701 | 8.53808 | 359 ft | 16 kts | 249° |
| 2026-05-07 12:22 | 50.03656 | 8.53627 | 361 ft | 20 kts | 249° |
| 2026-05-07 12:22 | 50.03600 | 8.53403 | 363 ft | 23 kts | 250° |
| 2026-05-07 12:22 | 50.03545 | 8.53168 | 362 ft | 23 kts | 250° |
| 2026-05-07 12:22 | 50.03488 | 8.52933 | 359 ft | 23 kts | 248° |
| 2026-05-07 12:23 | 50.03444 | 8.52767 | 362 ft | 4 kts | 248° |
| 2026-05-07 12:23 | 50.03438 | 8.52746 | 360 ft | 0 kts | 248° |
| 2026-05-07 12:23 | 50.03437 | 8.52743 | 361 ft | 2 kts | 248° |
| 2026-05-07 12:23 | 50.03422 | 8.52686 | 359 ft | 8 kts | 247° |
| 2026-05-07 12:24 | 50.03385 | 8.52616 | 364 ft | 9 kts | 214° |
| 2026-05-07 12:24 | 50.03328 | 8.52596 | 363 ft | 9 kts | 181° |
| 2026-05-07 12:24 | 50.03311 | 8.52595 | 361 ft | 0 kts | 181° |
| 2026-05-07 12:26 | 50.03228 | 8.52594 | 361 ft | 28 kts | 181° |
| 2026-05-07 12:26 | 50.03053 | 8.52590 | 354 ft | 49 kts | 181° |
| 2026-05-07 12:26 | 50.02405 | 8.52602 | 366 ft | 140 kts | 180° |
| 2026-05-07 12:27 | 50.01158 | 8.52598 | 523 ft | 202 kts | 181° |
| 2026-05-07 12:27 | 49.99719 | 8.52658 | 1384 ft | 213 kts | 182° |
| 2026-05-07 12:27 | 49.98216 | 8.52609 | 2420 ft | 222 kts | 182° |
| 2026-05-07 12:27 | 49.96704 | 8.53134 | 2998 ft | 232 kts | 145° |
| 2026-05-07 12:28 | 49.95668 | 8.55039 | 3615 ft | 235 kts | 116° |
| 2026-05-07 12:28 | 49.94898 | 8.57304 | 4386 ft | 238 kts | 118° |
| 2026-05-07 12:28 | 49.94155 | 8.59611 | 5178 ft | 240 kts | 105° |
| 2026-05-07 12:28 | 49.93945 | 8.62237 | 5572 ft | 257 kts | 90° |
| 2026-05-07 12:29 | 49.93864 | 8.65110 | 6170 ft | 271 kts | 91° |
| 2026-05-07 12:29 | 49.93692 | 8.68063 | 6880 ft | 279 kts | 104° |
| 2026-05-07 12:29 | 49.92728 | 8.70677 | 7594 ft | 286 kts | 137° |
| 2026-05-07 12:29 | 49.91144 | 8.72521 | 8314 ft | 288 kts | 146° |
| 2026-05-07 12:30 | 49.89482 | 8.74315 | 9079 ft | 293 kts | 145° |
| 2026-05-07 12:30 | 49.87992 | 8.76462 | 9795 ft | 296 kts | 123° |
| 2026-05-07 12:30 | 49.87000 | 8.79241 | 10341 ft | 304 kts | 117° |
| 2026-05-07 12:30 | 49.86797 | 8.79838 | 10422 ft | 307 kts | 117° |
| 2026-05-07 12:31 | 49.86306 | 8.81275 | 10513 ft | 319 kts | 118° |
| 2026-05-07 12:31 | 49.85200 | 8.84414 | 10708 ft | 344 kts | 119° |
| 2026-05-07 12:31 | 49.83992 | 8.87776 | 10918 ft | 370 kts | 119° |
| 2026-05-07 12:31 | 49.82709 | 8.91317 | 11482 ft | 382 kts | 119° |
| 2026-05-07 12:32 | 49.81395 | 8.94931 | 12234 ft | 389 kts | 119° |
| 2026-05-07 12:32 | 49.80059 | 8.98602 | 13100 ft | 393 kts | 119° |
| 2026-05-07 12:32 | 49.78708 | 9.02312 | 13976 ft | 397 kts | 119° |
| 2026-05-07 12:32 | 49.77345 | 9.06049 | 14741 ft | 401 kts | 119° |
| 2026-05-07 12:33 | 49.75239 | 9.14085 | 15991 ft | 412 kts | 101° |
| 2026-05-07 12:33 | 49.74563 | 9.18387 | 16627 ft | 414 kts | 110° |
| 2026-05-07 12:33 | 49.73100 | 9.22234 | 17257 ft | 419 kts | 131° |
| 2026-05-07 12:34 | 49.71096 | 9.25500 | 18044 ft | 420 kts | 135° |
| 2026-05-07 12:34 | 49.69124 | 9.28879 | 18681 ft | 426 kts | 129° |
| 2026-05-07 12:34 | 49.67402 | 9.32639 | 19295 ft | 430 kts | 124° |
| 2026-05-07 12:34 | 49.65741 | 9.36497 | 19927 ft | 434 kts | 124° |
| 2026-05-07 12:35 | 49.64064 | 9.40383 | 20549 ft | 437 kts | 124° |
| 2026-05-07 12:35 | 49.62364 | 9.44301 | 21161 ft | 441 kts | 124° |
| 2026-05-07 12:35 | 49.60665 | 9.48190 | 21758 ft | 445 kts | 124° |
| 2026-05-07 12:35 | 49.58922 | 9.52161 | 22367 ft | 448 kts | 124° |
| 2026-05-07 12:36 | 49.57164 | 9.56154 | 22943 ft | 453 kts | 124° |
| 2026-05-07 12:36 | 49.55375 | 9.60201 | 23352 ft | 461 kts | 124° |
| 2026-05-07 12:36 | 49.53563 | 9.64295 | 23838 ft | 465 kts | 124° |
| 2026-05-07 12:36 | 49.51731 | 9.68427 | 24392 ft | 467 kts | 124° |
| 2026-05-07 12:37 | 49.49901 | 9.72551 | 24961 ft | 468 kts | 124° |
| 2026-05-07 12:37 | 49.48058 | 9.76696 | 25462 ft | 470 kts | 124° |
| 2026-05-07 12:37 | 49.46205 | 9.80858 | 25943 ft | 474 kts | 124° |
| 2026-05-07 12:37 | 49.44334 | 9.85053 | 26407 ft | 477 kts | 124° |
| 2026-05-07 12:38 | 49.42452 | 9.89267 | 26843 ft | 482 kts | 124° |
| 2026-05-07 12:38 | 49.40545 | 9.93530 | 27218 ft | 486 kts | 124° |
| 2026-05-07 12:38 | 49.38621 | 9.97825 | 27669 ft | 489 kts | 124° |
| 2026-05-07 12:38 | 49.36746 | 10.02005 | 28147 ft | 491 kts | 124° |
| 2026-05-07 12:39 | 49.34802 | 10.06330 | 28620 ft | 494 kts | 124° |
| 2026-05-07 12:39 | 49.32871 | 10.10620 | 29047 ft | 497 kts | 124° |
| 2026-05-07 12:39 | 49.30900 | 10.14990 | 29450 ft | 500 kts | 124° |
| 2026-05-07 12:39 | 49.28892 | 10.19436 | 29836 ft | 502 kts | 124° |
| 2026-05-07 12:40 | 49.26901 | 10.23837 | 30261 ft | 502 kts | 124° |
| 2026-05-07 12:40 | 49.24935 | 10.28175 | 30657 ft | 503 kts | 125° |
| 2026-05-07 12:40 | 49.22938 | 10.32577 | 30984 ft | 505 kts | 125° |
| 2026-05-07 12:40 | 49.20925 | 10.37004 | 31035 ft | 508 kts | 125° |
| 2026-05-07 12:41 | 49.16907 | 10.45826 | 31037 ft | 502 kts | 125° |
| 2026-05-07 12:41 | 49.12774 | 10.54378 | 31068 ft | 500 kts | 131° |
| 2026-05-07 12:42 | 49.07826 | 10.61839 | 31052 ft | 501 kts | 137° |
| 2026-05-07 12:42 | 49.02785 | 10.69176 | 31047 ft | 500 kts | 137° |
| 2026-05-07 12:43 | 48.97777 | 10.76537 | 31062 ft | 502 kts | 137° |
| 2026-05-07 12:43 | 48.95254 | 10.80235 | 31286 ft | 505 kts | 137° |
| 2026-05-07 12:43 | 48.92724 | 10.83934 | 31725 ft | 502 kts | 137° |
| 2026-05-07 12:44 | 48.90247 | 10.87555 | 32216 ft | 499 kts | 137° |
| 2026-05-07 12:44 | 48.87756 | 10.91204 | 32714 ft | 496 kts | 137° |
| 2026-05-07 12:44 | 48.85241 | 10.94889 | 33078 ft | 496 kts | 137° |
| 2026-05-07 12:44 | 48.82780 | 10.98491 | 33007 ft | 499 kts | 137° |
| 2026-05-07 12:45 | 48.77902 | 11.05614 | 33006 ft | 492 kts | 138° |
| 2026-05-07 12:45 | 48.72977 | 11.12774 | 33025 ft | 490 kts | 138° |
| 2026-05-07 12:46 | 48.68056 | 11.19931 | 33034 ft | 490 kts | 136° |
| 2026-05-07 12:46 | 48.64033 | 11.28274 | 33026 ft | 495 kts | 119° |
| 2026-05-07 12:47 | 48.61531 | 11.37997 | 33029 ft | 498 kts | 108° |
| 2026-05-07 12:47 | 48.59521 | 11.48023 | 33020 ft | 499 kts | 109° |
| 2026-05-07 12:48 | 48.57397 | 11.58007 | 33025 ft | 500 kts | 109° |
| 2026-05-07 12:48 | 48.55709 | 11.68134 | 33019 ft | 502 kts | 103° |
| 2026-05-07 12:49 | 48.54266 | 11.78451 | 32992 ft | 503 kts | 104° |
| 2026-05-07 12:49 | 48.52785 | 11.88773 | 33011 ft | 503 kts | 104° |
| 2026-05-07 12:50 | 48.51265 | 11.99079 | 33020 ft | 504 kts | 105° |
| 2026-05-07 12:50 | 48.49755 | 12.09253 | 33013 ft | 505 kts | 105° |
| 2026-05-07 12:51 | 48.48207 | 12.19572 | 32988 ft | 505 kts | 105° |
| 2026-05-07 12:51 | 48.46641 | 12.29901 | 33006 ft | 505 kts | 105° |
| 2026-05-07 12:52 | 48.45068 | 12.40218 | 33011 ft | 505 kts | 105° |
| 2026-05-07 12:52 | 48.43487 | 12.50537 | 33000 ft | 505 kts | 105° |
| 2026-05-07 12:53 | 48.41900 | 12.60830 | 33003 ft | 505 kts | 105° |
| 2026-05-07 12:53 | 48.40306 | 12.71114 | 33007 ft | 504 kts | 106° |
| 2026-05-07 12:54 | 48.38348 | 12.81209 | 33012 ft | 501 kts | 112° |
| 2026-05-07 12:54 | 48.35985 | 12.91076 | 33010 ft | 502 kts | 112° |
| 2026-05-07 12:55 | 48.33673 | 13.00793 | 32977 ft | 502 kts | 113° |
| 2026-05-07 12:55 | 48.31367 | 13.10609 | 33004 ft | 501 kts | 113° |
| 2026-05-07 12:56 | 48.29040 | 13.20473 | 33006 ft | 501 kts | 113° |
| 2026-05-07 12:56 | 48.26719 | 13.30348 | 33005 ft | 502 kts | 113° |
| 2026-05-07 12:57 | 48.24396 | 13.40215 | 32983 ft | 502 kts | 114° |
| 2026-05-07 12:57 | 48.21877 | 13.49944 | 32996 ft | 497 kts | 120° |
| 2026-05-07 12:58 | 48.18399 | 13.58809 | 33004 ft | 492 kts | 128° |
| 2026-05-07 12:58 | 48.14650 | 13.67382 | 32994 ft | 492 kts | 128° |
| 2026-05-07 12:59 | 48.10932 | 13.75929 | 32992 ft | 493 kts | 127° |
| 2026-05-07 12:59 | 48.07212 | 13.84531 | 32993 ft | 492 kts | 128° |
| 2026-05-07 13:00 | 48.03497 | 13.93117 | 32985 ft | 491 kts | 128° |
| 2026-05-07 13:00 | 47.99863 | 14.01499 | 32988 ft | 490 kts | 128° |
| 2026-05-07 13:01 | 47.96149 | 14.10034 | 32987 ft | 490 kts | 128° |
| 2026-05-07 13:01 | 47.92436 | 14.18534 | 32976 ft | 489 kts | 129° |
| 2026-05-07 13:02 | 47.88723 | 14.27007 | 32981 ft | 488 kts | 129° |
| 2026-05-07 13:02 | 47.85006 | 14.35464 | 32983 ft | 487 kts | 129° |
| 2026-05-07 13:03 | 47.81283 | 14.43907 | 32962 ft | 487 kts | 129° |
| 2026-05-07 13:03 | 47.77595 | 14.52250 | 32976 ft | 484 kts | 129° |
| 2026-05-07 13:04 | 47.73890 | 14.60600 | 32985 ft | 484 kts | 130° |
| 2026-05-07 13:04 | 47.70169 | 14.68956 | 32959 ft | 485 kts | 130° |
| 2026-05-07 13:05 | 47.66439 | 14.77315 | 32932 ft | 485 kts | 130° |
| 2026-05-07 13:05 | 47.62717 | 14.85634 | 32937 ft | 483 kts | 130° |
| 2026-05-07 13:06 | 47.59000 | 14.93910 | 33005 ft | 482 kts | 130° |
| 2026-05-07 13:06 | 47.55328 | 15.02057 | 32954 ft | 483 kts | 130° |
| 2026-05-07 13:07 | 47.51589 | 15.10335 | 32956 ft | 484 kts | 130° |
| 2026-05-07 13:07 | 47.47846 | 15.18596 | 32908 ft | 484 kts | 130° |
| 2026-05-07 13:08 | 47.44128 | 15.26777 | 32920 ft | 481 kts | 131° |
| 2026-05-07 13:08 | 47.40390 | 15.34981 | 32953 ft | 484 kts | 131° |
| 2026-05-07 13:09 | 47.36581 | 15.43294 | 32949 ft | 494 kts | 131° |
| 2026-05-07 13:09 | 47.32702 | 15.51747 | 32944 ft | 500 kts | 131° |
| 2026-05-07 13:10 | 47.28806 | 15.60228 | 32933 ft | 499 kts | 131° |
| 2026-05-07 13:10 | 47.24914 | 15.68674 | 32935 ft | 498 kts | 131° |
| 2026-05-07 13:11 | 47.22964 | 15.72891 | 33188 ft | 497 kts | 131° |
| 2026-05-07 13:11 | 47.21028 | 15.77073 | 33758 ft | 492 kts | 131° |
| 2026-05-07 13:11 | 47.19119 | 15.81196 | 34273 ft | 486 kts | 131° |
| 2026-05-07 13:11 | 47.17219 | 15.85289 | 34549 ft | 486 kts | 131° |
| 2026-05-07 13:12 | 47.13362 | 15.93555 | 34608 ft | 495 kts | 131° |
| 2026-05-07 13:12 | 47.09496 | 16.01824 | 34691 ft | 503 kts | 131° |
| 2026-05-07 13:13 | 47.05519 | 16.10324 | 34819 ft | 506 kts | 131° |
| 2026-05-07 13:13 | 47.01520 | 16.18847 | 34933 ft | 507 kts | 131° |
| 2026-05-07 13:14 | 46.97773 | 16.27620 | 34965 ft | 512 kts | 125° |
| 2026-05-07 13:14 | 46.94359 | 16.36775 | 34961 ft | 513 kts | 124° |
| 2026-05-07 13:15 | 46.91527 | 16.44400 | 34965 ft | 513 kts | 125° |
| 2026-05-07 13:15 | 46.88093 | 16.53534 | 34957 ft | 512 kts | 125° |
| 2026-05-07 13:16 | 46.84640 | 16.62630 | 34972 ft | 511 kts | 126° |
| 2026-05-07 13:16 | 46.81186 | 16.71682 | 34974 ft | 510 kts | 126° |
| 2026-05-07 13:17 | 46.77640 | 16.80627 | 34969 ft | 505 kts | 131° |
| 2026-05-07 13:17 | 46.73541 | 16.88874 | 34949 ft | 502 kts | 133° |
| 2026-05-07 13:18 | 46.69406 | 16.96992 | 34993 ft | 502 kts | 133° |
| 2026-05-07 13:18 | 46.65328 | 17.05047 | 34992 ft | 503 kts | 133° |
| 2026-05-07 13:19 | 46.61188 | 17.13259 | 34994 ft | 503 kts | 133° |
| 2026-05-07 13:19 | 46.57051 | 17.21464 | 34961 ft | 503 kts | 133° |
| 2026-05-07 13:20 | 46.52903 | 17.29670 | 34987 ft | 504 kts | 133° |
| 2026-05-07 13:20 | 46.48738 | 17.37884 | 35000 ft | 506 kts | 133° |
| 2026-05-07 13:21 | 46.44556 | 17.46107 | 34990 ft | 507 kts | 133° |
| 2026-05-07 13:21 | 46.40368 | 17.54322 | 34986 ft | 505 kts | 133° |
| 2026-05-07 13:22 | 46.36198 | 17.62476 | 35008 ft | 504 kts | 133° |
| 2026-05-07 13:22 | 46.32025 | 17.70610 | 35011 ft | 503 kts | 133° |
| 2026-05-07 13:23 | 46.27848 | 17.78726 | 35012 ft | 502 kts | 133° |
| 2026-05-07 13:23 | 46.23670 | 17.86822 | 34989 ft | 503 kts | 133° |
| 2026-05-07 13:24 | 46.19479 | 17.94915 | 35010 ft | 504 kts | 133° |
| 2026-05-07 13:24 | 46.15364 | 18.02843 | 35016 ft | 506 kts | 133° |
| 2026-05-07 13:25 | 46.11133 | 18.10971 | 35023 ft | 508 kts | 133° |
| 2026-05-07 13:25 | 46.06881 | 18.19117 | 35013 ft | 509 kts | 132° |
| 2026-05-07 13:26 | 46.02619 | 18.27258 | 35015 ft | 509 kts | 133° |
| 2026-05-07 13:26 | 45.98398 | 18.35299 | 35015 ft | 509 kts | 133° |
| 2026-05-07 13:27 | 45.94126 | 18.43414 | 35016 ft | 508 kts | 133° |
| 2026-05-07 13:27 | 45.89857 | 18.51497 | 35007 ft | 508 kts | 132° |
| 2026-05-07 13:28 | 45.85585 | 18.59565 | 35007 ft | 507 kts | 132° |
| 2026-05-07 13:28 | 45.81309 | 18.67615 | 35004 ft | 507 kts | 132° |
| 2026-05-07 13:29 | 45.77025 | 18.75657 | 35008 ft | 508 kts | 132° |
| 2026-05-07 13:29 | 45.72737 | 18.83685 | 35012 ft | 508 kts | 132° |
| 2026-05-07 13:30 | 45.68440 | 18.91707 | 35024 ft | 508 kts | 132° |
| 2026-05-07 13:30 | 45.64138 | 18.99714 | 35002 ft | 508 kts | 132° |
| 2026-05-07 13:31 | 45.59890 | 19.07599 | 34983 ft | 508 kts | 132° |
| 2026-05-07 13:31 | 45.55600 | 19.15542 | 35008 ft | 508 kts | 132° |
| 2026-05-07 13:32 | 45.51276 | 19.23522 | 34998 ft | 508 kts | 132° |
| 2026-05-07 13:32 | 45.47073 | 19.31616 | 34998 ft | 510 kts | 128° |
| 2026-05-07 13:33 | 45.43240 | 19.40125 | 35001 ft | 511 kts | 127° |
| 2026-05-07 13:33 | 45.39431 | 19.48737 | 35005 ft | 511 kts | 127° |
| 2026-05-07 13:34 | 45.33708 | 19.61446 | 35005 ft | 511 kts | 127° |
| 2026-05-07 13:35 | 45.29843 | 19.69922 | 34994 ft | 511 kts | 127° |
| 2026-05-07 13:35 | 45.25974 | 19.78378 | 34995 ft | 510 kts | 127° |
| 2026-05-07 13:36 | 45.22106 | 19.86811 | 35004 ft | 509 kts | 128° |
| 2026-05-07 13:36 | 45.18249 | 19.95197 | 35000 ft | 508 kts | 128° |
| 2026-05-07 13:37 | 45.14448 | 20.03439 | 34999 ft | 506 kts | 128° |
| 2026-05-07 13:37 | 45.10595 | 20.11771 | 35005 ft | 505 kts | 128° |
| 2026-05-07 13:38 | 45.06740 | 20.20081 | 35013 ft | 505 kts | 128° |
| 2026-05-07 13:38 | 45.02877 | 20.28381 | 35005 ft | 506 kts | 128° |
| 2026-05-07 13:39 | 44.99043 | 20.36600 | 35012 ft | 504 kts | 128° |
| 2026-05-07 13:39 | 44.95179 | 20.44859 | 35018 ft | 503 kts | 128° |
| 2026-05-07 13:40 | 44.91314 | 20.53095 | 35016 ft | 503 kts | 128° |
| 2026-05-07 13:40 | 44.87440 | 20.61324 | 34998 ft | 504 kts | 128° |
| 2026-05-07 13:41 | 44.83562 | 20.69540 | 35020 ft | 504 kts | 128° |
| 2026-05-07 13:41 | 44.79661 | 20.77782 | 35018 ft | 505 kts | 128° |
| 2026-05-07 13:42 | 44.75763 | 20.85994 | 35022 ft | 505 kts | 128° |
| 2026-05-07 13:42 | 44.71853 | 20.94204 | 35016 ft | 506 kts | 128° |
| 2026-05-07 13:43 | 44.67985 | 21.02307 | 35028 ft | 508 kts | 128° |
| 2026-05-07 13:43 | 44.64030 | 21.10565 | 35027 ft | 510 kts | 128° |
| 2026-05-07 13:44 | 44.60063 | 21.18829 | 35026 ft | 511 kts | 128° |
| 2026-05-07 13:44 | 44.56088 | 21.27086 | 35036 ft | 510 kts | 128° |
| 2026-05-07 13:45 | 44.52131 | 21.35280 | 35025 ft | 511 kts | 128° |
| 2026-05-07 13:45 | 44.48146 | 21.43510 | 35038 ft | 509 kts | 128° |
| 2026-05-07 13:46 | 44.44171 | 21.51697 | 35037 ft | 508 kts | 128° |
| 2026-05-07 13:46 | 44.40204 | 21.59844 | 35042 ft | 505 kts | 128° |
| 2026-05-07 13:47 | 44.36247 | 21.67946 | 35059 ft | 504 kts | 128° |
| 2026-05-07 13:47 | 44.32288 | 21.76028 | 35061 ft | 503 kts | 129° |
| 2026-05-07 13:48 | 44.28327 | 21.84091 | 35051 ft | 503 kts | 128° |
| 2026-05-07 13:48 | 44.24372 | 21.92123 | 35060 ft | 502 kts | 128° |
| 2026-05-07 13:49 | 44.20436 | 22.00092 | 35065 ft | 502 kts | 128° |
| 2026-05-07 13:49 | 44.16511 | 22.08017 | 35052 ft | 503 kts | 128° |
| 2026-05-07 13:50 | 44.12525 | 22.16043 | 35060 ft | 505 kts | 128° |
| 2026-05-07 13:50 | 44.08514 | 22.24097 | 35065 ft | 507 kts | 128° |
| 2026-05-07 13:51 | 44.04482 | 22.32171 | 35064 ft | 509 kts | 128° |
| 2026-05-07 13:51 | 44.00459 | 22.40206 | 35063 ft | 510 kts | 128° |
| 2026-05-07 13:52 | 43.96413 | 22.48267 | 35061 ft | 510 kts | 128° |
| 2026-05-07 13:52 | 43.92349 | 22.56340 | 35058 ft | 510 kts | 128° |
| 2026-05-07 13:53 | 43.88282 | 22.64394 | 35050 ft | 510 kts | 128° |
| 2026-05-07 13:53 | 43.84210 | 22.72438 | 35065 ft | 509 kts | 128° |
| 2026-05-07 13:54 | 43.80139 | 22.80458 | 35066 ft | 509 kts | 128° |
| 2026-05-07 13:54 | 43.76064 | 22.88463 | 35063 ft | 508 kts | 128° |
| 2026-05-07 13:55 | 43.71983 | 22.96457 | 35070 ft | 508 kts | 128° |
| 2026-05-07 13:55 | 43.67966 | 23.04306 | 35065 ft | 508 kts | 128° |
| 2026-05-07 13:56 | 43.63881 | 23.12266 | 35060 ft | 508 kts | 128° |
| 2026-05-07 13:56 | 43.59791 | 23.20214 | 35048 ft | 509 kts | 128° |
| 2026-05-07 13:57 | 43.55701 | 23.28138 | 35073 ft | 512 kts | 128° |
| 2026-05-07 13:57 | 43.51553 | 23.36156 | 35054 ft | 514 kts | 129° |
| 2026-05-07 13:58 | 43.47394 | 23.44174 | 35057 ft | 515 kts | 129° |
| 2026-05-07 13:58 | 43.43226 | 23.52186 | 35055 ft | 515 kts | 129° |
| 2026-05-07 13:59 | 43.39046 | 23.60200 | 35061 ft | 516 kts | 129° |
| 2026-05-07 13:59 | 43.34855 | 23.68212 | 35056 ft | 517 kts | 129° |
| 2026-05-07 14:00 | 43.30651 | 23.76228 | 35051 ft | 517 kts | 129° |
| 2026-05-07 14:00 | 43.26437 | 23.84242 | 35060 ft | 518 kts | 129° |
| 2026-05-07 14:01 | 43.22207 | 23.92264 | 35054 ft | 520 kts | 129° |
| 2026-05-07 14:01 | 43.18012 | 24.00198 | 35067 ft | 520 kts | 129° |
| 2026-05-07 14:02 | 43.14490 | 24.06841 | 35061 ft | 521 kts | 129° |
| 2026-05-07 14:02 | 43.09530 | 24.16176 | 35071 ft | 521 kts | 129° |
| 2026-05-07 14:03 | 43.05950 | 24.22894 | 35047 ft | 522 kts | 129° |
| 2026-05-07 14:03 | 43.01669 | 24.30907 | 35064 ft | 522 kts | 128° |
| 2026-05-07 14:04 | 42.97410 | 24.38859 | 35049 ft | 523 kts | 128° |
| 2026-05-07 14:04 | 42.93078 | 24.46925 | 35076 ft | 524 kts | 129° |
| 2026-05-07 14:05 | 42.88803 | 24.54885 | 35072 ft | 524 kts | 127° |
| 2026-05-07 14:05 | 42.85072 | 24.63459 | 35077 ft | 527 kts | 120° |
| 2026-05-07 14:06 | 42.81627 | 24.72285 | 35068 ft | 528 kts | 120° |
| 2026-05-07 14:06 | 42.78154 | 24.81101 | 35065 ft | 528 kts | 120° |
| 2026-05-07 14:07 | 42.74646 | 24.89869 | 35065 ft | 528 kts | 120° |
| 2026-05-07 14:07 | 42.71111 | 24.98636 | 35068 ft | 528 kts | 121° |
| 2026-05-07 14:08 | 42.67628 | 25.07248 | 35065 ft | 527 kts | 121° |
| 2026-05-07 14:08 | 42.64092 | 25.15973 | 35049 ft | 528 kts | 121° |
| 2026-05-07 14:09 | 42.60545 | 25.24702 | 35051 ft | 527 kts | 121° |
| 2026-05-07 14:09 | 42.56998 | 25.33406 | 35057 ft | 527 kts | 121° |
| 2026-05-07 14:10 | 42.53440 | 25.42109 | 35049 ft | 528 kts | 121° |
| 2026-05-07 14:10 | 42.49872 | 25.50811 | 35053 ft | 528 kts | 121° |
| 2026-05-07 14:11 | 42.46299 | 25.59499 | 35051 ft | 529 kts | 121° |
| 2026-05-07 14:11 | 42.42712 | 25.68195 | 35042 ft | 529 kts | 121° |
| 2026-05-07 14:12 | 42.39114 | 25.76892 | 35046 ft | 530 kts | 121° |
| 2026-05-07 14:12 | 42.35510 | 25.85577 | 35044 ft | 530 kts | 121° |
| 2026-05-07 14:13 | 42.31893 | 25.94269 | 35045 ft | 531 kts | 121° |
| 2026-05-07 14:13 | 42.28319 | 26.02830 | 35050 ft | 532 kts | 121° |
| 2026-05-07 14:14 | 42.24702 | 26.11471 | 35051 ft | 533 kts | 121° |
| 2026-05-07 14:14 | 42.21052 | 26.20171 | 35053 ft | 533 kts | 121° |
| 2026-05-07 14:15 | 42.17393 | 26.28874 | 35049 ft | 534 kts | 121° |
| 2026-05-07 14:15 | 42.13714 | 26.37585 | 35055 ft | 535 kts | 121° |
| 2026-05-07 14:16 | 42.10023 | 26.46294 | 35055 ft | 535 kts | 121° |
| 2026-05-07 14:16 | 42.06325 | 26.54995 | 35062 ft | 536 kts | 121° |
| 2026-05-07 14:17 | 42.02709 | 26.63486 | 34453 ft | 503 kts | 121° |
| 2026-05-07 14:17 | 42.00991 | 26.67510 | 33216 ft | 494 kts | 121° |
| 2026-05-07 14:17 | 41.99278 | 26.71514 | 31534 ft | 499 kts | 120° |
| 2026-05-07 14:17 | 41.97549 | 26.75549 | 31045 ft | 495 kts | 120° |
| 2026-05-07 14:18 | 41.95823 | 26.79515 | 30651 ft | 492 kts | 121° |
| 2026-05-07 14:18 | 41.94031 | 26.83483 | 30169 ft | 502 kts | 121° |
| 2026-05-07 14:18 | 41.92196 | 26.87503 | 29576 ft | 503 kts | 121° |
| 2026-05-07 14:18 | 41.90382 | 26.91496 | 29027 ft | 498 kts | 121° |
| 2026-05-07 14:19 | 41.88592 | 26.95448 | 28536 ft | 492 kts | 121° |
| 2026-05-07 14:19 | 41.86826 | 26.99334 | 28032 ft | 486 kts | 121° |
| 2026-05-07 14:19 | 41.85127 | 27.03066 | 27545 ft | 481 kts | 121° |
| 2026-05-07 14:19 | 41.83392 | 27.06873 | 27061 ft | 476 kts | 121° |
| 2026-05-07 14:20 | 41.81673 | 27.10642 | 26578 ft | 471 kts | 121° |
| 2026-05-07 14:20 | 41.79946 | 27.14340 | 26169 ft | 464 kts | 123° |
| 2026-05-07 14:20 | 41.78143 | 27.17871 | 25855 ft | 456 kts | 125° |
| 2026-05-07 14:20 | 41.76322 | 27.21316 | 25556 ft | 449 kts | 125° |
| 2026-05-07 14:21 | 41.74531 | 27.24732 | 24900 ft | 450 kts | 124° |
| 2026-05-07 14:21 | 41.72746 | 27.28191 | 24320 ft | 451 kts | 124° |
| 2026-05-07 14:21 | 41.70899 | 27.31538 | 23943 ft | 443 kts | 133° |
| 2026-05-07 14:21 | 41.68599 | 27.34212 | 23602 ft | 436 kts | 147° |
| 2026-05-07 14:22 | 41.65940 | 27.36162 | 22897 ft | 436 kts | 160° |
| 2026-05-07 14:22 | 41.63062 | 27.37282 | 22476 ft | 427 kts | 169° |
| 2026-05-07 14:22 | 41.60175 | 27.38184 | 21976 ft | 425 kts | 168° |
| 2026-05-07 14:22 | 41.57355 | 27.39126 | 21537 ft | 421 kts | 167° |
| 2026-05-07 14:23 | 41.54528 | 27.40107 | 21097 ft | 418 kts | 167° |
| 2026-05-07 14:23 | 41.51728 | 27.41087 | 20666 ft | 414 kts | 167° |
| 2026-05-07 14:23 | 41.48947 | 27.42057 | 20242 ft | 411 kts | 167° |
| 2026-05-07 14:23 | 41.46194 | 27.43012 | 19830 ft | 407 kts | 167° |
| 2026-05-07 14:24 | 41.43487 | 27.44074 | 19416 ft | 405 kts | 161° |
| 2026-05-07 14:24 | 41.40922 | 27.45600 | 19017 ft | 403 kts | 153° |
| 2026-05-07 14:24 | 41.38516 | 27.47490 | 18599 ft | 400 kts | 146° |
| 2026-05-07 14:24 | 41.36284 | 27.49672 | 18178 ft | 397 kts | 143° |
| 2026-05-07 14:25 | 41.34094 | 27.51880 | 17724 ft | 394 kts | 143° |
| 2026-05-07 14:25 | 41.31926 | 27.54074 | 17326 ft | 389 kts | 143° |
| 2026-05-07 14:25 | 41.29778 | 27.56241 | 16914 ft | 385 kts | 143° |
| 2026-05-07 14:25 | 41.27651 | 27.58376 | 16520 ft | 381 kts | 143° |
| 2026-05-07 14:26 | 41.25548 | 27.60477 | 16139 ft | 376 kts | 144° |
| 2026-05-07 14:26 | 41.23468 | 27.62548 | 15759 ft | 372 kts | 144° |
| 2026-05-07 14:26 | 41.21408 | 27.64594 | 15385 ft | 368 kts | 144° |
| 2026-05-07 14:26 | 41.19365 | 27.66621 | 15009 ft | 364 kts | 144° |
| 2026-05-07 14:27 | 41.17350 | 27.68618 | 14651 ft | 360 kts | 144° |
| 2026-05-07 14:27 | 41.15356 | 27.70592 | 14280 ft | 356 kts | 144° |
| 2026-05-07 14:27 | 41.13371 | 27.72553 | 13883 ft | 356 kts | 143° |
| 2026-05-07 14:27 | 41.11392 | 27.74507 | 13413 ft | 354 kts | 143° |
| 2026-05-07 14:28 | 41.09437 | 27.76440 | 13128 ft | 348 kts | 143° |
| 2026-05-07 14:28 | 41.07496 | 27.78358 | 12766 ft | 347 kts | 143° |
| 2026-05-07 14:28 | 41.05557 | 27.80270 | 12412 ft | 347 kts | 143° |
| 2026-05-07 14:28 | 41.03621 | 27.82180 | 12053 ft | 347 kts | 143° |
| 2026-05-07 14:29 | 41.01692 | 27.84081 | 11694 ft | 344 kts | 143° |
| 2026-05-07 14:29 | 40.99786 | 27.85957 | 11342 ft | 340 kts | 143° |
| 2026-05-07 14:29 | 40.97896 | 27.87816 | 11006 ft | 336 kts | 143° |
| 2026-05-07 14:29 | 40.96026 | 27.89652 | 10652 ft | 333 kts | 143° |
| 2026-05-07 14:30 | 40.94325 | 27.91639 | 10307 ft | 322 kts | 126° |
| 2026-05-07 14:30 | 40.93361 | 27.94238 | 10028 ft | 313 kts | 102° |
| 2026-05-07 14:30 | 40.93117 | 27.97017 | 9803 ft | 298 kts | 85° |
| 2026-05-07 14:30 | 40.93370 | 27.99714 | 9474 ft | 291 kts | 81° |
| 2026-05-07 14:31 | 40.93546 | 28.02271 | 9214 ft | 286 kts | 85° |
| 2026-05-07 14:31 | 40.93646 | 28.04872 | 8907 ft | 282 kts | 85° |
| 2026-05-07 14:31 | 40.93737 | 28.07455 | 8509 ft | 280 kts | 85° |
| 2026-05-07 14:31 | 40.93834 | 28.10039 | 8087 ft | 281 kts | 85° |
| 2026-05-07 14:32 | 40.93936 | 28.12619 | 7696 ft | 280 kts | 85° |
| 2026-05-07 14:32 | 40.94043 | 28.15182 | 7344 ft | 278 kts | 85° |
| 2026-05-07 14:32 | 40.94151 | 28.17730 | 7026 ft | 276 kts | 85° |
| 2026-05-07 14:32 | 40.94261 | 28.20272 | 6761 ft | 276 kts | 85° |
| 2026-05-07 14:33 | 40.94371 | 28.22805 | 6522 ft | 276 kts | 85° |
| 2026-05-07 14:33 | 40.94480 | 28.25304 | 6275 ft | 275 kts | 85° |
| 2026-05-07 14:33 | 40.94591 | 28.27828 | 6026 ft | 275 kts | 85° |
| 2026-05-07 14:33 | 40.94701 | 28.30355 | 5782 ft | 275 kts | 85° |
| 2026-05-07 14:34 | 40.94811 | 28.32874 | 5539 ft | 275 kts | 86° |
| 2026-05-07 14:34 | 40.94920 | 28.35394 | 5289 ft | 274 kts | 86° |
| 2026-05-07 14:34 | 40.95028 | 28.37908 | 5035 ft | 271 kts | 86° |
| 2026-05-07 14:34 | 40.95132 | 28.40327 | 4741 ft | 257 kts | 86° |
| 2026-05-07 14:35 | 40.95231 | 28.42662 | 4478 ft | 251 kts | 86° |
| 2026-05-07 14:35 | 40.95328 | 28.44931 | 4226 ft | 243 kts | 86° |
| 2026-05-07 14:35 | 40.95421 | 28.47124 | 4029 ft | 237 kts | 86° |
| 2026-05-07 14:35 | 40.95513 | 28.49294 | 3842 ft | 235 kts | 86° |
| 2026-05-07 14:36 | 40.95605 | 28.51455 | 3675 ft | 236 kts | 86° |
| 2026-05-07 14:36 | 40.95695 | 28.53615 | 3505 ft | 236 kts | 86° |
| 2026-05-07 14:36 | 40.95786 | 28.55786 | 3337 ft | 236 kts | 86° |
| 2026-05-07 14:36 | 40.95875 | 28.57955 | 3170 ft | 236 kts | 86° |
| 2026-05-07 14:37 | 40.95956 | 28.60111 | 3081 ft | 233 kts | 88° |
| 2026-05-07 14:37 | 40.97085 | 28.63831 | 3039 ft | 221 kts | 40° |
| 2026-05-07 14:37 | 40.98254 | 28.65164 | 3039 ft | 222 kts | 37° |
| 2026-05-07 14:38 | 40.99447 | 28.66454 | 2984 ft | 220 kts | 36° |
| 2026-05-07 14:38 | 41.00616 | 28.67713 | 2987 ft | 213 kts | 36° |
| 2026-05-07 14:38 | 41.01769 | 28.68951 | 3004 ft | 216 kts | 36° |
| 2026-05-07 14:38 | 41.02947 | 28.70207 | 3001 ft | 218 kts | 33° |
| 2026-05-07 14:39 | 41.04279 | 28.70950 | 2982 ft | 200 kts | 3° |
| 2026-05-07 14:39 | 41.05617 | 28.71100 | 3021 ft | 188 kts | 359° |
| 2026-05-07 14:39 | 41.06894 | 28.71157 | 2999 ft | 180 kts | 356° |
| 2026-05-07 14:39 | 41.08131 | 28.71154 | 2999 ft | 178 kts | 355° |
| 2026-05-07 14:40 | 41.09371 | 28.71132 | 3008 ft | 179 kts | 355° |
| 2026-05-07 14:40 | 41.10598 | 28.71106 | 3004 ft | 178 kts | 355° |
| 2026-05-07 14:40 | 41.11834 | 28.71078 | 2999 ft | 178 kts | 355° |
| 2026-05-07 14:40 | 41.13082 | 28.71049 | 2949 ft | 183 kts | 355° |
| 2026-05-07 14:41 | 41.14363 | 28.71021 | 2691 ft | 182 kts | 355° |
| 2026-05-07 14:41 | 41.15601 | 28.70989 | 2457 ft | 174 kts | 355° |
| 2026-05-07 14:41 | 41.16772 | 28.70963 | 2202 ft | 163 kts | 355° |
| 2026-05-07 14:41 | 41.17908 | 28.70936 | 2046 ft | 164 kts | 356° |
| 2026-05-07 14:42 | 41.19025 | 28.70911 | 1833 ft | 158 kts | 356° |
| 2026-05-07 14:42 | 41.20122 | 28.70887 | 1592 ft | 157 kts | 356° |
| 2026-05-07 14:42 | 41.21218 | 28.70861 | 1405 ft | 160 kts | 356° |
| 2026-05-07 14:42 | 41.22329 | 28.70834 | 1184 ft | 158 kts | 357° |
| 2026-05-07 14:43 | 41.23404 | 28.70808 | 963 ft | 151 kts | 359° |
| 2026-05-07 14:43 | 41.24449 | 28.70784 | 777 ft | 150 kts | 0° |
| 2026-05-07 14:43 | 41.25472 | 28.70760 | 639 ft | 144 kts | 1° |
| 2026-05-07 14:43 | 41.26453 | 28.70726 | 403 ft | 137 kts | 2° |
| 2026-05-07 14:44 | 41.27361 | 28.70722 | 334 ft | 117 kts | 359° |
| 2026-05-07 14:44 | 41.28028 | 28.70708 | 333 ft | 88 kts | 359° |
| 2026-05-07 14:44 | 41.28446 | 28.70702 | 334 ft | 43 kts | 3° |
| 2026-05-07 14:44 | 41.28602 | 28.70772 | 335 ft | 13 kts | 26° |
| 2026-05-07 14:45 | 41.28656 | 28.70814 | 335 ft | 0 kts | 32° |
| 2026-05-07 14:46 | 41.28668 | 28.70824 | 333 ft | 6 kts | 32° |
| 2026-05-07 14:46 | 41.28737 | 28.70881 | 334 ft | 17 kts | 32° |
| 2026-05-07 14:46 | 41.28864 | 28.70983 | 335 ft | 26 kts | 25° |
| 2026-05-07 14:47 | 41.29001 | 28.71081 | 334 ft | 17 kts | 51° |
| 2026-05-07 14:47 | 41.28938 | 28.71164 | 336 ft | 17 kts | 181° |
| 2026-05-07 14:47 | 41.28817 | 28.71163 | 335 ft | 20 kts | 178° |
| 2026-05-07 14:47 | 41.28678 | 28.71166 | 335 ft | 20 kts | 179° |
| 2026-05-07 14:48 | 41.28586 | 28.71168 | 338 ft | 20 kts | 178° |
| 2026-05-07 14:48 | 41.28447 | 28.71171 | 334 ft | 20 kts | 179° |
| 2026-05-07 14:48 | 41.28309 | 28.71174 | 336 ft | 20 kts | 179° |
| 2026-05-07 14:48 | 41.28169 | 28.71178 | 333 ft | 20 kts | 179° |
| 2026-05-07 14:49 | 41.28031 | 28.71181 | 334 ft | 20 kts | 179° |
| 2026-05-07 14:49 | 41.27896 | 28.71183 | 335 ft | 20 kts | 179° |
| 2026-05-07 14:49 | 41.27760 | 28.71188 | 334 ft | 15 kts | 177° |
| 2026-05-07 14:49 | 41.27700 | 28.71262 | 336 ft | 10 kts | 97° |
| 2026-05-07 14:50 | 41.27699 | 28.71343 | 336 ft | 6 kts | 89° |
| 2026-05-07 14:50 | 41.27699 | 28.71348 | 336 ft | 0 kts | 89° |